Tiempo atmosférico en la estación meteorológica de Puebla De Don Rodrigo, Ciudad Real (485 m.)



Fecha
DESCASC
Temp. máxima en grados centígrados (hora)
DESCASC
Temp. mínima en grados centígrados (hora)
DESCASC
Temp. media en grados centígrados
DESCASC
Racha de viento máxima en m/sg (hora)
DESCASC
Velocidad máxima media en intervalos de 10 minutos(hora)
DESCASC
Precipitaciones diarias en mm
DESCASC
Precipitaciones de 00:00 a 06:00 en mm
DESCASC
Precipitaciones de 06:00 a 12:00 en mm
DESCASC
Precipitaciones de 12:00 a 18:00 en mm
DESCASC
Precipitaciones de 18:00 a 24:00 en mm
DESCASC
21-02-2021 12 (00:00) 5.9 (23:50) 9 7.5 (12:40) 5 (12:40) 8.1 0 0 7.6 0.5
20-02-2021 20.3 (14:10) 3.8 (05:40) 12 11.67 (12:10) 7.5 (14:40) 0 0 0 0 0
19-02-2021 21 (14:50) 0.7 (08:20) 10.8 8.61 (14:20) 5.28 (15:20) 0 0 0 0 0
18-02-2021 20.1 (15:30) 0.7 (00:00) 10.4 5.83 (13:50) 3.06 (14:30) 0 0 0 0 0
17-02-2021 22.3 (15:40) 1.4 (00:00) 11.8 4.17 (16:20) 1.94 (16:40) 0 0 0 0 0
16-02-2021 21 (15:10) 2.4 (00:00) 11.7 4.44 (16:10) 2.5 (19:30) 0 0 0 0 0
15-02-2021 18.2 (16:20) 2.5 (00:00) 10.4 7.5 (14:20) 4.72 (15:20) 0 0 0 0 0
14-02-2021 19.2 (15:10) 2 (00:00) 10.6 9.17 (13:10) 5.56 (13:10) 0.1 0 0.1 0 0
13-02-2021 18.4 (15:40) 1.4 (00:00) 9.9 4.44 (16:00) 3.06 (20:10) 0 0 0 0 0
12-02-2021 17.6 (15:10) 6.3 (00:00) 12 8.06 (07:50) 3.06 (10:30) 1.6 0.3 1.3 0 0
11-02-2021 14.5 (16:20) 9.2 (00:00) 11.8 5.28 (14:50) 3.61 (14:30) 1.2 1 0.2 0 0
10-02-2021 15.9 (16:00) 8.5 (00:00) 12.2 12.5 (02:00) 5.28 (02:00) 3.2 0.1 3.1 0 0
09-02-2021 10.7 (12:30) 7 (00:00) 8.8 15.83 (15:50) 7.5 (15:40) 21.4 0 0 16.6 4.8
08-02-2021 12.8 (14:40) 6.7 (00:00) 9.8 15.83 (05:40) 7.5 (05:50) 9 5.2 1.3 2.2 0.3
07-02-2021 12.4 (15:10) 6.3 (00:00) 9.3 9.17 (17:10) 4.44 (16:50) 0.3 0 0.1 0 0.2
06-02-2021 11 (14:30) 7.1 (00:00) 9 8.33 (09:20) 5.28 (09:30) 4.7 0.3 1.9 0.6 1.9
05-02-2021 18.7 (14:40) 6.6 (00:00) 12.7 9.72 (19:00) 4.72 (19:00) 0.6 0 0 0 0.6
04-02-2021 15.6 (15:50) 9.2 (00:00) 12.4 10 (16:00) 6.39 (15:20) 0 0 0 0 0
03-02-2021 16.1 (14:30) 9.5 (00:00) 12.8 7.22 (09:50) 5 (12:10) 0 0 0 0 0
02-02-2021 12.2 (15:20) 7.5 (00:00) 9.8 8.61 (12:00) 5.56 (11:50) 0 0 0 0 0
01-02-2021 13.8 (15:50) 7.8 (00:00) 10.8 8.61 (02:40) 4.44 (16:30) 0 0 0 0 0
31-01-2021 13.1 (16:50) 7.2 (00:00) 10.2 10.83 (20:30) 5.28 (21:10) 0.8 0 0.1 0.1 0.6
30-01-2021 13.5 (13:30) 8.6 (00:00) 11.1 12.5 (13:50) 5 (13:30) 1.2 0 1.2 0 0
29-01-2021 21.3 (15:20) 5.2 (00:00) 13.2 6.11 (17:00) 3.61 (17:00) 0.2 0.1 0.1 0 0
28-01-2021 21.4 (16:00) 7.7 (00:00) 14.5 3.33 (12:30) 2.22 (19:30) 0.2 0 0.1 0.1 0
27-01-2021 16.4 (15:00) 10.7 (00:00) 13.5 4.72 (15:50) 3.33 (15:50) 0 0 0 0 0
26-01-2021 15.7 (15:10) 11 (00:00) 13.3 6.39 (00:30) 2.78 (00:50) 0.1 0 0.1 0 0
25-01-2021 14 (15:00) 8.7 (00:00) 11.3 11.11 (13:10) 5.28 (13:20) 3.2 0.2 2.7 0.3 0

Gráficas

Temp. máximas Temp. mínimas Temp. medias Precipitaciones Rachas de viento máximas Velocidades máximas media en intervalos de 10 minutos

Datos horarios

Fecha y hora oficial Temperatura (ºC) Velocidad del viento (km/h) Dirección del viento Racha (km/h) Dirección de racha Precipitación (mm) Presión (hPa) Tendencia (hPa) Humedad (%)
2021-02-23 23:00:00 7.6 5 Nordeste 7 Este 0 970.1 1.1 71
2021-02-23 22:00:00 8.8 5 Este 7 Este 0 969.9 1.3 62
2021-02-23 21:00:00 10.6 3 Nordeste 9 Este 0 969.5 1 50
2021-02-23 20:00:00 11.8 4 Este 8 Nordeste 0 969 0.7 45
2021-02-23 19:00:00 12.5 0 Calma 17 Este 0 968.6 -- 42
2021-02-23 18:00:00 14.3 10 Sudeste 24 Este 0 968.5 -- 38
2021-02-23 17:00:00 14.5 15 Este 26 Este 0 968.3 -- 37
2021-02-23 16:00:00 15.4 12 Sudeste 25 Sur 0 968.4 -- 34
2021-02-23 15:00:00 15.5 13 Sudeste 25 Sur 0 968.7 -- 33
2021-02-23 14:00:00 15.4 10 Sudeste 23 Sudeste 0 969 -- 37
2021-02-23 13:00:00 13.3 5 Este 12 Este 0 969.8 -- 46
2021-02-23 12:00:00 11.2 4 Nordeste 9 Este 0 970.2 -- 49
2021-02-23 11:00:00 6.3 4 Este 9 Nordeste 0 970.3 -- 69
2021-02-23 10:00:00 1.8 2 Sudeste 5 Este 0 969.9 -- 97
2021-02-23 09:00:00 -1.2 0 Calma 5 Sudeste 0 969 -- 97
2021-02-23 08:00:00 -1.8 2 Este 6 Oeste 0 968.1 -- 97
2021-02-23 07:00:00 -1.1 0 Calma 4 Oeste 0 967.5 -- 97
2021-02-23 06:00:00 -1 0 Calma 5 Nordeste 0 966.7 -- 97
2021-02-23 05:00:00 -0.8 0 Calma 4 Este 0 966.8 -- 97
2021-02-23 04:00:00 0.2 0 Calma 5 Sudoeste 0 966.3 -- 96
2021-02-23 03:00:00 1.2 0 Calma 4 Oeste 0 966 -- 96
2021-02-23 02:00:00 1 0 Calma 4 Noroeste 0 965.7 -- 94
2021-02-23 01:00:00 2.6 0 Calma 5 Sur 0 965.3 -- 91
2021-02-23 00:00:00 3.7 0 Calma 5 Sur 0 964.7 -- 87
2021-02-22 23:00:00 4.2 0 Calma 12 Oeste 0 964.3 -- 80
2021-02-22 22:00:00 6.2 6 Sudoeste 9 Sudoeste 0 963.2 -- 67
2021-02-22 21:00:00 6.6 7 Oeste 10 Oeste 0 962.5 -- 58
2021-02-22 20:00:00 7.3 3 Oeste 12 Sudoeste 0 961.6 -- 53
2021-02-22 19:00:00 9.1 7 Sudoeste 17 Sudoeste 0 960.7 -- 45
2021-02-22 18:00:00 11.2 6 Sudoeste 19 Oeste 0 959.9 -- 38
2021-02-22 17:00:00 12.6 9 Sudoeste 22 Oeste 0 959.1 -- 35
2021-02-22 16:00:00 13.5 8 Oeste 20 Sudoeste 0 958.3 -- 35
2021-02-22 15:00:00 12.8 6 Sudoeste 21 Sudoeste 0 958.1 -- 35
2021-02-22 14:00:00 12.5 9 Sudoeste 20 Oeste 0 958.3 -- 38
2021-02-22 13:00:00 11.7 4 Sudoeste 22 Sudoeste 0 958.4 -- 42
2021-02-22 12:00:00 10.4 5 Oeste 17 Oeste 0 958.5 -- 49
2021-02-22 11:00:00 7.5 4 Oeste 16 Sudoeste 0 957.9 -- 64
2021-02-22 10:00:00 5.3 3 Oeste 9 Sudoeste 0 957.4 -- 76
2021-02-22 09:00:00 3.1 2 Nordeste 16 Oeste 0 956.7 -- 88
2021-02-22 08:00:00 2.8 6 Oeste 19 Oeste 0 955.8 -- 89
2021-02-22 07:00:00 3.4 5 Oeste 15 Sudoeste 0 955.1 1.7 89
2021-02-22 06:00:00 3.4 5 Oeste 19 Sudoeste 0 954.3 -- 89
2021-02-22 05:00:00 3.8 9 Sudoeste 15 Sudoeste 0 953.6 -- 88
2021-02-22 04:00:00 4.1 5 Sudoeste 13 Oeste 0 953.4 -- 87
2021-02-22 03:00:00 5 4 Oeste 21 Sudoeste 0 952.7 -- 81
2021-02-22 02:00:00 5.2 13 Sudoeste 24 Sudoeste 0 951.8 -- 81
2021-02-22 01:00:00 5.5 9 Oeste 24 Oeste 0 951 -- 83
2021-02-22 00:00:00 5.9 12 Sudoeste 24 Oeste 0 950 -- 84
2021-02-21 23:00:00 6.5 8 Sudoeste 21 Oeste 0 949.4 -- 84
2021-02-21 22:00:00 6.5 5 Oeste 15 Oeste 0 948.6 2.9 87
2021-02-21 21:00:00 6.4 4 Oeste 19 Oeste 0.1 947.9 -- 91
2021-02-21 20:00:00 6.3 7 Oeste 22 Oeste 0.3 946.9 -- 92
2021-02-21 19:00:00 6.8 5 Sudoeste 18 Sudoeste 0.1 945.7 -- 93
2021-02-21 18:00:00 7.1 6 Oeste 21 Oeste 1.6 944.7 -- 95
2021-02-21 17:00:00 8.8 10 Sudoeste 17 Sudoeste 2.2 944 -- 93
2021-02-21 16:00:00 9.3 8 Sur 24 Sur 1.2 943.4 -- 91
2021-02-21 15:00:00 9.4 12 Sudeste 20 Sur 1 943.3 -- 93
2021-02-21 14:00:00 9.1 10 Sudeste 19 Sudeste 0.9 943.9 -- 92
2021-02-21 13:00:00 9.3 13 Sudeste 27 Sudeste 0.7 944.6 -- 86
2021-02-21 12:00:00 11 11 Sudeste 19 Este 0 944.5 -- 66
2021-02-21 11:00:00 10.5 9 Sudeste 21 Sudeste 0 945.1 -- 66
2021-02-21 10:00:00 10.2 6 Sudeste 14 Este 0 945.1 -- 65
2021-02-21 09:00:00 9.6 8 Sudeste 16 Sudeste 0 944.8 -- 64
2021-02-21 08:00:00 9.6 3 Sudeste 8 Sur 0 945.2 -- 61
2021-02-21 07:00:00 10.3 2 Norte 12 Sudoeste 0 945.8 -- 58
2021-02-21 06:00:00 9.4 2 Norte 9 Nordeste 0 946.1 -- 60
2021-02-21 05:00:00 10 3 Nordeste 11 Este 0 946.3 -- 58
2021-02-21 04:00:00 10.1 0 Calma 7 Oeste 0 946.1 -- 56
2021-02-21 03:00:00 10.2 0 Calma 7 Oeste 0 946.1 -- 56
2021-02-21 02:00:00 10.4 2 Oeste 10 Este 0 946.5 -- 54
2021-02-21 01:00:00 11.3 0 Calma 6 Nordeste 0 947.6 -- 51
2021-02-21 00:00:00 12 0 Calma 13 Este 0 948.3 -- 50
2021-02-20 23:00:00 12.5 7 Sudeste 21 Sudeste 0 948.1 -- 47
2021-02-20 22:00:00 13 8 Sudeste 21 Sudeste 0 948.2 -- 48
2021-02-20 21:00:00 12.8 5 Sudeste 12 Sudeste 0 948.7 -- 46
2021-02-20 20:00:00 13.3 4 Sudeste 8 Este 0 949.5 -- 43
2021-02-20 19:00:00 14.4 5 Sur 10 Sudoeste 0 949.6 -- 38
2021-02-20 18:00:00 15.5 5 Sur 21 Sur 0 949.8 -- 35
2021-02-20 17:00:00 16.4 10 Sur 30 Sudoeste 0 950.3 -- 29
2021-02-20 16:00:00 18 15 Sur 33 Sudoeste 0 950.7 -- 23
2021-02-20 15:00:00 17.9 22 Sur 41 Sur 0 950.9 -- 22
2021-02-20 14:00:00 17.5 25 Sur 40 Sur 0 951.2 -- 22
2021-02-20 13:00:00 17.3 20 Sur 42 Sur 0 952.4 -- 25
2021-02-20 12:00:00 17.3 22 Sur 35 Sur 0 952.8 -- 28
2021-02-20 11:00:00 12.9 2 Nordeste 11 Nordeste 0 953.8 -- 56
2021-02-20 10:00:00 8.8 9 Sudeste 21 Sudeste 0 953.9 -- 64
2021-02-20 09:00:00 6.4 5 Sudeste 11 Este 0 953.9 0.3 73
2021-02-20 08:00:00 5.3 5 Este 12 Sudeste 0 953.7 -- 80
2021-02-20 07:00:00 6.5 4 Sur 9 Sudeste 0 953.9 -- 76
2021-02-20 06:00:00 4.3 3 Norte 7 Oeste 0 953.6 -- 87
2021-02-20 05:00:00 4.7 2 Sur 6 Norte 0 953.8 -- 84
2021-02-20 04:00:00 5.2 0 Calma 6 Noroeste 0 954.1 -1.3 76
2021-02-20 03:00:00 6.2 0 Calma 7 Noroeste 0 954.6 -- 73
2021-02-20 02:00:00 6.3 3 Nordeste 7 Este 0 954.9 -- 65
2021-02-20 01:00:00 8.6 4 Este 9 Nordeste 0 955.4 -- 61
2021-02-20 00:00:00 7.8 3 Noroeste 8 Noroeste 0 955.8 -- 62
2021-02-19 23:00:00 10.7 8 Sudoeste 12 Sudoeste 0 956 0 45
2021-02-19 22:00:00 11.7 6 Sudoeste 9 Sudoeste 0 956.1 -- 39
2021-02-19 21:00:00 12.4 8 Sudoeste 11 Sudoeste 0 956 -- 35
2021-02-19 20:00:00 13.4 3 Sudoeste 6 Sudoeste 0 956 -- 29
2021-02-19 19:00:00 15.1 4 Sudoeste 14 Sudoeste 0 955.6 -- 26
2021-02-19 18:00:00 17.2 7 Sudoeste 27 Sudoeste 0 955.3 -- 25
2021-02-19 17:00:00 19.4 15 Sudoeste 27 Sur 0 955.5 -1 22
2021-02-19 16:00:00 19.7 16 Sur 31 Sur 0 955.5 -- 22
2021-02-19 15:00:00 19.6 13 Sudoeste 31 Sudoeste 0 955.9 -- 23
2021-02-19 14:00:00 18.9 17 Sudoeste 28 Sur 0 956.5 -- 22
2021-02-19 13:00:00 17.4 9 Este 14 Este 0 957.4 -- 35
2021-02-19 12:00:00 13.4 7 Este 11 Este 0 958.1 -- 45
2021-02-19 11:00:00 9.3 4 Este 9 Sudeste 0 958.8 -- 61
2021-02-19 10:00:00 5.1 4 Este 7 Este 0 958.9 -- 75
2021-02-19 09:00:00 2.5 0 Calma 2 Este 0 959.1 -- 95
2021-02-19 08:00:00 1.1 0 Calma 2 Nordeste 0 958.7 -- 96
2021-02-19 07:00:00 1.3 0 Calma 3 Este 0 958.4 -- 96
2021-02-19 06:00:00 1.7 0 Calma 2 Nordeste 0 958.4 -- 95
2021-02-19 05:00:00 2.1 3 Sudoeste 5 Sudoeste 0 958.3 -- 95
2021-02-19 04:00:00 3.2 2 Norte 4 Noroeste 0 957.9 -- 95
2021-02-19 03:00:00 3.2 0 Calma 3 Nordeste 0 958.6 -- 92
2021-02-19 02:00:00 4.2 0 Calma 3 Norte 0 958.6 -- 91
2021-02-19 01:00:00 5 0 Calma 4 Sur 0 958.7 -- 87
2021-02-19 00:00:00 5.9 0 Calma 4 Norte 0 959.1 -- 82
2021-02-18 23:00:00 6.5 0 Calma 4 Sudoeste 0 959 -- 74
2021-02-18 22:00:00 8.6 0 Calma 3 Nordeste 0 958.7 -- 65
2021-02-18 21:00:00 9.6 0 Calma 6 Oeste 0 958.2 -- 54
2021-02-18 20:00:00 11.6 0 Calma 10 Sudoeste 0 957.8 -- 43
2021-02-18 19:00:00 13.1 5 Oeste 9 Sudoeste 0 957.3 -- 35
2021-02-18 18:00:00 16.2 3 Oeste 15 Sudoeste 0 956.9 -- 28
2021-02-18 17:00:00 18.9 2 Oeste 16 Sudoeste 0 956.9 -- 25
2021-02-18 16:00:00 19.4 6 Oeste 18 Noroeste 0 956.9 -- 25
2021-02-18 15:00:00 19.1 6 Oeste 20 Sudoeste 0 957.1 -- 24
2021-02-18 14:00:00 18.7 7 Oeste 21 Sudoeste 0 957.8 -- 26
2021-02-18 13:00:00 16.4 5 Este 10 Sudeste 0 958.4 -- 43
2021-02-18 12:00:00 12.6 5 Este 9 Este 0 958.5 -- 54
2021-02-18 11:00:00 8.2 3 Este 8 Nordeste 0 958.7 -- 66
2021-02-18 10:00:00 6.1 0 Calma 5 Este 0 958.5 -- 76
2021-02-18 09:00:00 2.6 0 Calma 4 Noroeste 0 958.2 -- 96
2021-02-18 08:00:00 0.9 0 Calma -- -- 0 957.7 -- 96
2021-02-18 07:00:00 1.8 0 Calma 0 Calma 0 957.5 -- 96
2021-02-18 06:00:00 2.1 0 Calma 4 Oeste 0 957.5 -- 96
2021-02-18 05:00:00 2 0 Calma 2 Nordeste 0 957.6 -- 95
2021-02-18 04:00:00 3.3 0 Calma 4 Sudoeste 0 957.7 -- 93
2021-02-18 03:00:00 4.2 0 Calma 4 Sudoeste 0 957.8 -- 92
2021-02-18 02:00:00 4.4 0 Calma 3 Nordeste 0 958 -- 89
2021-02-18 01:00:00 4.9 0 Calma 4 Noroeste 0 958.1 -- 86
2021-02-18 00:00:00 6.8 0 Calma 4 Oeste 0 958.2 -- 75
2021-02-17 23:00:00 7.9 0 Calma 4 Nordeste 0 958.6 -- 70
2021-02-17 22:00:00 9.5 0 Calma 3 Sudoeste 0 958.4 -- 57
2021-02-17 21:00:00 11.3 0 Calma 6 Sudoeste 0 958.3 -- 49
2021-02-17 20:00:00 12.7 5 Sudoeste 9 Sudoeste 0 958.1 -- 42
2021-02-17 19:00:00 15.4 6 Oeste 9 Sudoeste 0 958 -- 32
2021-02-17 18:00:00 19 3 Oeste 14 Oeste 0 958.2 -- 25
2021-02-17 17:00:00 21.1 5 Oeste 15 Sudoeste 0 958.3 -- 21
2021-02-17 16:00:00 21.9 5 Oeste 14 Sudoeste 0 958.6 -- 20
2021-02-17 15:00:00 20 5 Nordeste 9 Nordeste 0 959.2 -- 31
2021-02-17 14:00:00 18.6 4 Este 10 Este 0 960.3 -- 35
2021-02-17 13:00:00 14.9 4 Este 10 Este 0 961.3 -- 50
2021-02-17 12:00:00 9.9 4 Este 8 Nordeste 0 962.2 -- 68
2021-02-17 11:00:00 5.2 2 Sudeste 5 Nordeste 0 963 -- 96
2021-02-17 10:00:00 2.8 0 Calma 5 Nordeste 0 963.2 -- 96
2021-02-17 09:00:00 1.9 0 Calma 4 Sur 0 962.8 -- 96
2021-02-17 08:00:00 1.9 0 Calma 6 Norte 0 962.8 -- 96
2021-02-17 07:00:00 1.8 2 Norte 6 Oeste 0 962.8 -- 96
2021-02-17 06:00:00 2.1 0 Calma 3 Sur 0 962.9 -- 96
2021-02-17 05:00:00 3.5 3 Noroeste 6 Noroeste 0 962.9 -- 96
2021-02-17 04:00:00 3.8 0 Calma 4 Noroeste 0 963.3 -- 96
2021-02-17 03:00:00 4.2 0 Calma 4 Este 0 963.6 -- 95
2021-02-17 02:00:00 4.9 0 Calma 2 Sudoeste 0 963.7 -- 93
2021-02-17 01:00:00 5.6 0 Calma 4 Noroeste 0 963.7 -- 90
2021-02-17 00:00:00 6.8 0 Calma 3 Norte 0 964.1 -- 85
2021-02-16 23:00:00 7.9 0 Calma 5 Sur 0 963.7 -- 76
2021-02-16 22:00:00 10.4 2 Oeste 6 Oeste 0 963.7 -- 64
2021-02-16 21:00:00 10.2 0 Calma 6 Nordeste 0 963.5 -- 64
2021-02-16 20:00:00 11.8 0 Calma 12 Oeste 0 963.4 -- 55
2021-02-16 19:00:00 13.6 7 Sudoeste 10 Oeste 0 963.2 -- 45
2021-02-16 18:00:00 16.9 4 Oeste 11 Sudoeste 0 963.1 -- 32
2021-02-16 17:00:00 18.9 5 Sudoeste 16 Sudoeste 0 963.3 -- 28
2021-02-16 16:00:00 18.8 6 Sudoeste 16 Oeste 0 963.7 -- 27
2021-02-16 15:00:00 20.7 4 Oeste 12 Este 0 964.2 -- 27
2021-02-16 14:00:00 18.1 4 Sudeste 12 Este 0 964.9 -- 33
2021-02-16 13:00:00 15.5 6 Este 14 Sudeste 0 965.8 -- 43
2021-02-16 12:00:00 12.7 8 Sudeste 13 Sudeste 0 966.6 -- 55
2021-02-16 11:00:00 8.8 5 Este 11 Nordeste 0 966.6 -- 67
2021-02-16 10:00:00 6.8 0 Calma 6 Este 0 966.7 -- 85
2021-02-16 09:00:00 4 0 Calma 5 Este 0 966.4 -- 96
2021-02-16 08:00:00 3.1 2 Sur 6 Noroeste 0 965.4 -- 96
2021-02-16 07:00:00 3.1 4 Noroeste 6 Norte 0 965.4 -- 96
2021-02-16 06:00:00 3.5 4 Este 11 Este 0 965.4 -- 96
2021-02-16 05:00:00 4.1 2 Sudeste 7 Sudeste 0 965.7 -- 96
2021-02-16 04:00:00 4 0 Calma 4 Noroeste 0 966.2 -- 96
2021-02-16 03:00:00 4.7 0 Calma 7 Noroeste 0 966.5 -- 95
2021-02-16 02:00:00 5.2 0 Calma 4 Norte 0 966.5 -- 93
2021-02-16 01:00:00 6.1 0 Calma 5 Noroeste 0 966.6 -- 93
2021-02-16 00:00:00 8 0 Calma 6 Noroeste 0 966.9 -- 87
2021-02-15 23:00:00 9 0 Calma 7 Norte 0 966.5 -- 81
2021-02-15 22:00:00 9.7 4 Norte 8 Este 0 966.7 -- 75
2021-02-15 21:00:00 10.8 6 Este 13 Sudeste 0 966.3 -- 70
2021-02-15 20:00:00 12.9 9 Sudeste 12 Sudeste 0 966.2 -- 56
2021-02-15 19:00:00 14.2 7 Sudeste 12 Sudeste 0 966.1 -- 49
2021-02-15 18:00:00 16.3 6 Sudeste 19 Este 0 965.9 -- 42
2021-02-15 17:00:00 17.4 13 Sudeste 23 Sudeste 0 966.3 -- 37
2021-02-15 16:00:00 17.9 14 Sudeste 26 Sudeste 0 966.4 -- 36
2021-02-15 15:00:00 17.3 15 Sudeste 27 Sudeste 0 966.9 -- 35
2021-02-15 14:00:00 16.9 12 Sudeste 21 Sudeste 0 967.8 -- 37
2021-02-15 13:00:00 16.1 12 Sudeste 20 Sudeste 0 968.6 -- 42
2021-02-15 12:00:00 13.3 10 Este 17 Sudeste 0 969.3 -- 52
2021-02-15 11:00:00 10.1 6 Este 11 Este 0 969.4 -- 68
2021-02-15 10:00:00 6.5 6 Este 10 Nordeste 0 969.6 -- 84
2021-02-15 09:00:00 4.8 0 Calma 5 Nordeste 0 969.2 -- 93
2021-02-15 08:00:00 2.9 2 Nordeste 8 Este 0 968.5 -- 96
2021-02-15 07:00:00 3.2 2 Nordeste 6 Este 0 968.3 -- 95
2021-02-15 06:00:00 3.6 3 Norte 6 Nordeste 0 968.3 -- 95
2021-02-15 05:00:00 3.5 0 Calma 7 Norte 0 968.1 -- 95
2021-02-15 04:00:00 3.3 3 Nordeste 6 Noroeste 0 968.4 -- 95
2021-02-15 03:00:00 4.1 0 Calma 4 Norte 0 968.4 -- 93
2021-02-15 02:00:00 5 0 Calma 3 Sudeste 0 968.5 -- 92
2021-02-15 01:00:00 5.8 0 Calma 3 Sudeste 0 968.3 -- 89
2021-02-15 00:00:00 6.7 0 Calma 3 Nordeste 0 968 -- 83
2021-02-14 23:00:00 7.7 0 Calma 4 Sudoeste 0 967.5 -- 71
2021-02-14 22:00:00 9.3 0 Calma 4 Sur 0 967.3 -- 59
2021-02-14 21:00:00 10.9 0 Calma 5 Nordeste 0 966.8 -- 54
2021-02-14 20:00:00 11.4 4 Este 6 Este 0 966.5 -- 48
2021-02-14 19:00:00 13.9 4 Sudeste 13 Sur 0 966.1 0.6 39
2021-02-14 18:00:00 15.5 8 Sur 16 Sudeste 0 965.6 0 34
2021-02-14 17:00:00 17.7 10 Sudeste 19 Sudeste 0 965.7 -- 31
2021-02-14 16:00:00 18.4 13 Sudeste 21 Sudeste 0 965.5 -- 30
2021-02-14 15:00:00 18.5 11 Sudeste 28 Sudeste 0 965.6 -- 35
2021-02-14 14:00:00 17.4 18 Sudeste 33 Sudeste 0 966.1 -- 36
2021-02-14 13:00:00 15.6 18 Sudeste 32 Sudeste 0 966.5 -- 42
2021-02-14 12:00:00 12.2 6 Este 10 Este 0 967.1 -- 62
2021-02-14 11:00:00 5.2 0 Calma 8 Nordeste 0 967.3 -- 96
2021-02-14 10:00:00 3 0 Calma 6 Este 0.1 967.1 -- 96
2021-02-14 09:00:00 2.2 0 Calma 5 Nordeste 0 966.8 -- 96
2021-02-14 08:00:00 2.2 0 Calma 4 Sudeste 0 966.5 -- 96
2021-02-14 07:00:00 2.4 0 Calma 5 Sudeste 0 966 -- 96
2021-02-14 06:00:00 2.4 0 Calma 4 Sur 0 965.6 -- 96
2021-02-14 05:00:00 2.9 0 Calma 3 Noroeste 0 965.5 -- 96
2021-02-14 04:00:00 3.2 0 Calma 0 Calma 0 965.6 -- 96
2021-02-14 03:00:00 4 0 Calma 5 Este 0 965.9 -- 96
2021-02-14 02:00:00 4.4 0 Calma 4 Noroeste 0 965.8 -- 95
2021-02-14 01:00:00 5.1 0 Calma 5 Sudoeste 0 965.8 -- 95
2021-02-14 00:00:00 6.2 0 Calma 6 Sudoeste 0 965.6 -- 92
2021-02-13 23:00:00 6.5 0 Calma 8 Sudoeste 0 965.4 -- 90
2021-02-13 22:00:00 7.4 0 Calma 10 Sudoeste 0 965.4 -- 83
2021-02-13 21:00:00 10 4 Oeste 13 Sudoeste 0 965 -- 73
2021-02-13 20:00:00 10 6 Oeste 14 Sudoeste 0 964.7 -- 73
2021-02-13 19:00:00 11.9 9 Sudoeste 12 Oeste 0 963.8 -- 57
2021-02-13 18:00:00 14.9 6 Sudoeste 15 Sudoeste 0 963.3 -- 40
2021-02-13 17:00:00 16.7 7 Sudoeste 15 Sudoeste 0 963.4 -- 32
2021-02-13 16:00:00 17.6 6 Oeste 16 Oeste 0 963.4 -- 29
2021-02-13 15:00:00 18 6 Oeste 15 Oeste 0 963.8 -- 32
2021-02-13 14:00:00 15.6 4 Este 10 Nordeste 0 964.6 -- 53
2021-02-13 13:00:00 11.7 3 Sudeste 9 Sudeste 0 965 -- 64
2021-02-13 08:00:00 1.9 0 Calma 2 Este 0 964.7 0.8 96
2021-02-13 07:00:00 2 0 Calma 4 Sudoeste 0 964.7 0.9 96
2021-02-13 06:00:00 2.6 0 Calma 5 Noroeste 0 964.4 0.5 96
2021-02-13 05:00:00 3.6 0 Calma 4 Nordeste 0 963.9 0 96
2021-02-13 04:00:00 4.2 0 Calma 2 Norte 0 963.8 -0.1 96
2021-02-13 03:00:00 4.5 0 Calma 3 Este 0 963.9 0.4 96
2021-02-13 02:00:00 5.2 0 Calma 6 Sudoeste 0 963.9 0.6 95
2021-02-13 01:00:00 6.6 3 Sudoeste 5 Sudoeste 0 963.9 0.8 92
2021-02-13 00:00:00 6.6 2 Sudoeste 8 Sudoeste 0 963.5 1 88
2021-02-12 23:00:00 8.2 6 Sudoeste 9 Sudoeste 0 963.3 0.9 84
2021-02-12 22:00:00 8.6 3 Sudoeste 10 Oeste 0 963.1 1.7 81
2021-02-12 21:00:00 9.6 6 Oeste 12 Oeste 0 962.5 1.5 73
2021-02-12 20:00:00 9.9 6 Oeste 12 Oeste 0 962.4 1.7 69
2021-02-12 19:00:00 11.3 6 Sudoeste 16 Oeste 0 961.4 0.8 60
2021-02-12 18:00:00 13.1 6 Oeste 20 Oeste 0 961 0.3 47
2021-02-12 17:00:00 13.7 6 Oeste 22 Oeste 0 960.7 0.2 47
2021-02-12 16:00:00 14.9 6 Oeste 22 Oeste 0 960.6 -0.4 45
2021-02-12 15:00:00 16.4 6 Oeste 27 Oeste 0 960.7 -0.2 43
2021-02-12 14:00:00 15.2 9 Oeste 26 Sudoeste 0 960.5 -0.1 48
2021-02-12 13:00:00 13.9 9 Oeste 23 Oeste 0 961 1.1 52
2021-02-12 12:00:00 13.7 8 Oeste 25 Oeste 0 960.9 1 59
2021-02-12 11:00:00 12.6 10 Oeste 25 Oeste 0 960.6 2.1 65
2021-02-12 10:00:00 11.5 9 Oeste 21 Oeste 0 959.9 1.8 73
2021-02-12 09:00:00 9.8 3 Oeste 23 Oeste 0 959.9 -- 85
2021-02-12 08:00:00 9.6 9 Oeste 29 Oeste 0 958.5 -- 89
2021-02-12 07:00:00 10.7 10 Oeste 26 Oeste 1.3 958.1 -- 93
2021-02-12 06:00:00 10.9 8 Sudoeste 18 Oeste 0.3 957.6 -- 94
2021-02-12 05:00:00 11.4 5 Sudoeste 17 Sudoeste 0 957.6 -- 87
2021-02-12 04:00:00 10.9 6 Sudoeste 15 Sudoeste 0 958 -- 89
2021-02-12 03:00:00 11.4 5 Sudoeste 13 Sudoeste 0 958.1 -- 92
2021-02-12 02:00:00 11.6 6 Sudoeste 14 Sudoeste 0 958.2 -- 89
2021-02-12 01:00:00 11.5 6 Sudoeste 12 Sudoeste 0 958 -- 90
2021-02-12 00:00:00 11.4 5 Sudoeste 7 Sudoeste 0 958.3 -- 93
2021-02-11 23:00:00 11.5 0 Calma 12 Sudoeste 0 958.5 -- 91
2021-02-11 22:00:00 12.2 6 Sudoeste 13 Sudoeste 0 958.5 -- 89
2021-02-11 21:00:00 12.4 6 Sur 12 Sur 0 958.7 -- 89
2021-02-11 20:00:00 12.3 4 Sudoeste 9 Sudoeste 0 958.9 -- 87
2021-02-11 19:00:00 12.7 6 Sudoeste 9 Sudoeste 0 958.4 -- 82
2021-02-11 18:00:00 13.4 3 Sudoeste 9 Sudoeste 0 958.3 -- 77
2021-02-11 17:00:00 13.6 4 Sudoeste 15 Sudoeste 0 958.3 -- 75
2021-02-11 16:00:00 14.4 5 Sudoeste 19 Sudoeste 0 958.5 -- 71
2021-02-11 15:00:00 13.1 10 Sudoeste 19 Sudoeste 0 958.5 -- 77
2021-02-11 14:00:00 13.7 8 Sudoeste 14 Sudoeste 0 959 -- 74
2021-02-11 13:00:00 12.9 9 Sudoeste 16 Sudoeste 0 959.5 -- 78
2021-02-11 12:00:00 12.6 4 Sudoeste 13 Sur 0 959.9 -- 88
2021-02-11 11:00:00 11.5 0 Calma 4 Nordeste 0 959.8 -- 96
2021-02-11 10:00:00 10.9 0 Calma 3 Nordeste 0 959.5 -- 96
2021-02-11 09:00:00 10.1 0 Calma 4 Este 0 959.1 -- 96
2021-02-11 08:00:00 10.4 0 Calma 9 Oeste 0.1 958.5 -- 96
2021-02-11 07:00:00 10.6 3 Oeste 6 Oeste 0.1 958.4 -- 96
2021-02-11 06:00:00 10.2 0 Calma 3 Sudoeste 0.2 958 -- 96
2021-02-11 05:00:00 10 0 Calma -- -- 0.1 958 -- 96
2021-02-11 04:00:00 10 0 Calma 4 Nordeste 0.4 958.3 -- 96
2021-02-11 03:00:00 9.6 0 Calma 5 Nordeste 0.3 958.5 -- 95
2021-02-11 02:00:00 10.3 0 Calma 4 Sudeste 0 958.5 -- 91
2021-02-11 01:00:00 9.4 0 Calma 6 Norte 0 958.1 -- 92
2021-02-11 00:00:00 10.2 0 Calma 6 Sudoeste 0 957.9 -- 88
2021-02-10 23:00:00 9.3 0 Calma 5 Sudoeste 0 957.5 -- 88
2021-02-10 22:00:00 9.3 0 Calma 2 Sudoeste 0 957 -- 87
2021-02-10 21:00:00 9.2 0 Calma 8 Oeste 0 956.5 -- 84
2021-02-10 20:00:00 9.6 2 Oeste 8 Sudoeste 0 955.8 -- 76
2021-02-10 19:00:00 10.3 2 Oeste 15 Sudoeste 0 954.9 -- 69
2021-02-10 18:00:00 12.6 6 Sudoeste 22 Sudoeste 0 954.1 -- 57
2021-02-10 17:00:00 13.6 9 Oeste 21 Oeste 0 953.7 -- 47
2021-02-10 16:00:00 15.5 5 Oeste 26 Sudoeste 0 953.4 -- 43
2021-02-10 15:00:00 15.5 8 Oeste 31 Sudoeste 0 953.1 -- 46
2021-02-10 14:00:00 14.9 8 Oeste 26 Oeste 0 952.8 -- 50
2021-02-10 13:00:00 13 9 Oeste 26 Oeste 0 952.9 -- 55
2021-02-10 12:00:00 12.2 7 Oeste 27 Sudoeste 0 952.2 -- 60
2021-02-10 11:00:00 12.4 7 Sudoeste 23 Oeste 0 951.3 -- 73
2021-02-10 10:00:00 9.6 5 Oeste 24 Oeste 0 950.7 -- 85
2021-02-10 09:00:00 8.9 5 Oeste 29 Oeste 0.2 949.5 -- 91
2021-02-10 08:00:00 8.9 13 Oeste 39 Oeste 1.7 948.6 -- 91
2021-02-10 07:00:00 8.7 14 Oeste 44 Noroeste 1.2 947.8 -- 89
2021-02-10 06:00:00 9.3 17 Oeste 41 Oeste 0.1 946.9 -- 79
2021-02-10 05:00:00 9.6 14 Oeste 41 Oeste 0 947 -- 73
2021-02-10 04:00:00 9.4 6 Oeste 30 Sudoeste 0 946.6 -- 69
2021-02-10 03:00:00 9 13 Sudoeste 36 Sudoeste 0 947.2 -- 74
2021-02-10 02:00:00 9.2 19 Sudoeste 45 Sudoeste 0 946.4 -- 72
2021-02-10 01:00:00 9.1 14 Oeste 34 Oeste 0 947.1 -- 76
2021-02-10 00:00:00 9.2 9 Sudoeste 36 Sudoeste 0 946.8 -- 84
2021-02-09 23:00:00 9.1 10 Oeste 36 Sudoeste 0 947.1 -- 78
2021-02-09 22:00:00 9.5 12 Oeste 34 Sudoeste 0 946.6 -- 81
2021-02-09 21:00:00 9.3 12 Sudoeste 30 Oeste 0 945.9 -- 89
2021-02-09 20:00:00 9 10 Oeste 32 Sudoeste 4.2 945.6 -- 96
2021-02-09 19:00:00 8.8 9 Oeste 39 Oeste 0.6 945.3 -- 93
2021-02-09 18:00:00 9.1 13 Oeste 36 Oeste 1 944.9 -- 95
2021-02-09 17:00:00 9.1 5 Oeste 34 Sudoeste 3.6 944.7 -- 93
2021-02-09 16:00:00 9.7 15 Oeste 57 Sudoeste 3.6 944.5 -- 90
2021-02-09 15:00:00 9.7 19 Sudoeste 47 Sudoeste 4.2 943.9 -- 92
2021-02-09 14:00:00 9.6 23 Sudoeste 42 Sudoeste 2.9 944.1 -- 91
2021-02-09 13:00:00 9.5 19 Sudoeste 49 Sudoeste 1.3 945.6 -- 91
2021-02-09 12:00:00 9.9 20 Sudoeste 40 Sudoeste 0 946.3 -- 84
2021-02-09 11:00:00 9.3 18 Sudoeste 39 Sur 0 946.9 -- 82
2021-02-09 10:00:00 9.1 19 Sudoeste 33 Sudoeste 0 947.2 -- 81
2021-02-09 09:00:00 8.8 9 Sudoeste 33 Sudoeste 0 947.5 -- 81
2021-02-09 08:00:00 8.6 6 Sur 23 Sudoeste 0 947.4 -- 79
2021-02-09 07:00:00 8.2 6 Sur 17 Sudoeste 0 948.2 -- 83
2021-02-09 06:00:00 8.1 5 Sudoeste 15 Sudoeste 0 948.8 -- 83
2021-02-09 05:00:00 7.3 7 Sudoeste 17 Sur 0 949.1 -- 91
2021-02-09 04:00:00 7.6 11 Sudoeste 21 Sudoeste 0 949.5 -- 87
2021-02-09 03:00:00 7.5 6 Sudoeste 16 Sudoeste 0 950.1 -- 82
2021-02-09 02:00:00 7.3 8 Sudoeste 22 Sudoeste 0 950.1 -- 81
2021-02-09 01:00:00 7.8 7 Oeste 30 Sudoeste 0 950.2 -- 76
2021-02-09 00:00:00 8.4 12 Sudoeste 26 Sudoeste 0 950.2 -- 76
2021-02-08 23:00:00 8 6 Oeste 22 Oeste 0 949.9 -- 81
2021-02-08 22:00:00 7.7 8 Sudoeste 23 Oeste 0 949.6 -- 81
2021-02-08 21:00:00 8.2 7 Sudoeste 22 Oeste 0 949.1 -- 80
2021-02-08 20:00:00 7.8 4 Oeste 26 Oeste 0 948.8 -- 83
2021-02-08 19:00:00 8.2 14 Sudoeste 30 Sudoeste 0.3 947.3 -- 85
2021-02-08 18:00:00 9.3 7 Oeste 32 Sudoeste 0 946.7 -- 70
2021-02-08 17:00:00 9.2 6 Sudoeste 22 Sudoeste 0.5 946.1 -- 85
2021-02-08 16:00:00 8.8 8 Oeste 33 Sudoeste 1.1 945.7 -- 86
2021-02-08 15:00:00 11.9 16 Oeste 39 Sudoeste 0.1 945.1 -- 58
2021-02-08 14:00:00 9.3 14 Oeste 34 Sudoeste 0 945.8 -- 76
2021-02-08 13:00:00 9.2 11 Oeste 29 Oeste 0.5 946 -- 85
2021-02-08 12:00:00 8.5 12 Sudoeste 37 Sudoeste 0.1 946.4 -- 89
2021-02-08 11:00:00 8.7 11 Sudoeste 34 Sudoeste 0.4 946.4 -- 88
2021-02-08 10:00:00 7.8 12 Sudoeste 27 Sudoeste 0 946 -- 84
2021-02-08 09:00:00 7.6 8 Sudoeste 27 Oeste 0 945.1 -- 76
2021-02-08 08:00:00 7.3 6 Oeste 45 Sudoeste 0 944.2 -- 82
2021-02-08 07:00:00 7.7 16 Oeste 39 Sudoeste 0.8 943.2 -- 85
2021-02-08 06:00:00 8.8 18 Oeste 57 Sur 2.5 942.9 -- 88
2021-02-08 05:00:00 8.8 18 Sudoeste 40 Sur 0.8 942.2 -- 92
2021-02-08 04:00:00 8.5 20 Sudoeste 35 Sudoeste 0.6 943.6 -- 93
2021-02-08 03:00:00 7.2 9 Sur 21 Sudoeste 0.6 945.2 -- 93
2021-02-08 02:00:00 6.9 9 Sudoeste 27 Sudoeste 0.7 946.6 -- 92
2021-02-08 01:00:00 7.3 8 Sur 26 Sudoeste 0 947.7 -- 86
2021-02-08 00:00:00 7 13 Sudoeste 24 Sudoeste 0 948.5 -- 88
2021-02-07 23:00:00 6.6 11 Sudoeste 19 Sudoeste 0 949.5 -- 90
2021-02-07 22:00:00 7 7 Sudoeste 23 Sudoeste 0 949.6 -- 85
2021-02-07 21:00:00 6.6 8 Sudoeste 20 Sudoeste 0 950.1 -- 89
2021-02-07 20:00:00 6.4 6 Sudoeste 22 Oeste 0.2 950.2 -- 88
2021-02-07 19:00:00 6.5 8 Sudoeste 33 Sudoeste 0 949.7 -- 74
2021-02-07 18:00:00 8.2 8 Oeste 33 Oeste 0 949.3 -- 62
2021-02-07 17:00:00 8.7 15 Oeste 31 Sudoeste 0 948.8 -- 60
2021-02-07 16:00:00 9.9 9 Sudoeste 30 Oeste 0 948.5 -- 58
2021-02-07 15:00:00 11.5 9 Oeste 25 Oeste 0 948.3 -- 53
2021-02-07 14:00:00 10.6 15 Sudoeste 29 Sudoeste 0 948.4 -- 59
2021-02-07 13:00:00 8.9 7 Oeste 21 Oeste 0 948.9 -- 70
2021-02-07 12:00:00 9 9 Sudoeste 21 Sudoeste 0 948.6 -- 78
2021-02-07 11:00:00 6.5 8 Sudoeste 22 Oeste 0 948.4 -- 88
2021-02-07 10:00:00 7.3 5 Sudoeste 22 Oeste 0 947.9 -- 86
2021-02-07 09:00:00 7.3 4 Sudoeste 17 Sudoeste 0.1 947 -- 90
2021-02-07 08:00:00 7.5 0 Calma 11 Sudoeste 0 946.3 -- 92
2021-02-07 07:00:00 7.6 2 Sudoeste 12 Sudoeste 0 946.3 -- 92
2021-02-07 06:00:00 7.5 2 Sudoeste 5 Sudoeste 0 946 -- 93
2021-02-07 05:00:00 7.5 2 Oeste 8 Oeste 0 945.8 -- 93
2021-02-07 04:00:00 7.3 5 Sudoeste 8 Sudoeste 0 945.8 -- 93
2021-02-07 03:00:00 7.5 4 Sudoeste 9 Oeste 0 945.9 -- 93
2021-02-07 02:00:00 7.3 3 Sudoeste 8 Oeste 0 945.9 -- 95
2021-02-07 01:00:00 7.5 0 Calma 11 Sudoeste 0 945.9 -- 95
2021-02-07 00:00:00 7.7 4 Sudoeste 9 Sudoeste 0 945.4 -- 96
2021-02-06 23:00:00 7.4 4 Oeste 8 Sudoeste 0 945.1 -- 96
2021-02-06 22:00:00 7.9 3 Sudoeste 6 Sudoeste 0 944.6 -- 96
2021-02-06 21:00:00 8.2 3 Sudoeste 6 Oeste 0.1 944.2 -- 96
2021-02-06 20:00:00 8.6 3 Sudoeste 7 Oeste 1.2 943.9 -- 96
2021-02-06 19:00:00 8.7 5 Oeste 10 Sudoeste 0.6 943 -- 93
2021-02-06 18:00:00 9 5 Sudoeste 14 Sudoeste 0.3 942.3 -- 90
2021-02-06 17:00:00 9.5 5 Sudoeste 14 Sudoeste 0.2 942 -- 89
2021-02-06 16:00:00 10.1 9 Sudoeste 13 Sudoeste 0.1 941.5 -- 76
2021-02-06 15:00:00 9 12 Sudoeste 21 Sudoeste 0 941.6 -- 88
2021-02-06 14:00:00 9.3 10 Sudoeste 21 Sur 0 941.6 -- 86
2021-02-06 13:00:00 9 12 Sudoeste 23 Sudoeste 0 942.3 -- 92
2021-02-06 12:00:00 8.8 12 Sur 19 Sur 0 942.3 -- 92
2021-02-06 11:00:00 7.8 11 Sudoeste 19 Sudoeste 0.1 942 -- 92
2021-02-06 10:00:00 7.3 9 Sudoeste 30 Sur 0.7 941.6 -- 95
2021-02-06 09:00:00 8.4 9 Sur 19 Sudoeste 0 940.9 -- 92
2021-02-06 08:00:00 8.1 6 Sur 12 Sur 0.3 940.5 -- 96
2021-02-06 07:00:00 7.7 2 Sur 8 Sudeste 0.8 940.1 -- 93
2021-02-06 06:00:00 8 5 Este 13 Sur 0.3 940.3 -- 92
2021-02-06 05:00:00 8.8 6 Sudeste 12 Sudeste 0 940.4 -- 82
2021-02-06 04:00:00 8.6 8 Sur 19 Sur 0 940.6 -- 82
2021-02-06 03:00:00 8.9 10 Sur 17 Sudeste 0 940.9 -- 84
2021-02-06 02:00:00 8.8 3 Norte 9 Nordeste 0 941.5 -- 87
2021-02-06 01:00:00 8.8 0 Calma 9 Este 0 941.7 -- 91
2021-02-06 00:00:00 9 6 Sur 17 Sur 0 942 -- 87
2021-02-05 23:00:00 8.8 10 Sur 19 Sur 0 941.8 -- 87
2021-02-05 22:00:00 9.1 4 Sudeste 9 Sudeste 0.1 942 -- 96
2021-02-05 21:00:00 9.2 4 Sudoeste 8 Nordeste 0 941.7 -- 93
2021-02-05 20:00:00 9.1 3 Nordeste 31 Sudoeste 0.4 942 -- 92
2021-02-05 19:00:00 10.2 17 Sudoeste 35 Sudoeste 0.1 941.3 -- 85
2021-02-05 18:00:00 13 5 Sudoeste 19 Oeste 0 940.2 -- 65
2021-02-05 17:00:00 15.5 5 Sudoeste 12 Sudoeste 0 939.6 -- 48
2021-02-05 16:00:00 15.8 3 Sudoeste 13 Oeste 0 939.9 -- 45
2021-02-05 15:00:00 17.2 6 Sur 13 Sur 0 940.6 -- 42
2021-02-05 14:00:00 17.2 6 Sudeste 13 Nordeste 0 941.4 -- 43
2021-02-05 13:00:00 16.7 7 Nordeste 14 Nordeste 0 942 -- 46
2021-02-05 12:00:00 14.8 6 Nordeste 11 Nordeste 0 943.2 -- 55
2021-02-05 11:00:00 11.9 4 Nordeste 8 Este 0 943.3 -- 67
2021-02-05 10:00:00 9.9 4 Este 7 Este 0 944.1 -- 80
2021-02-05 09:00:00 8.5 0 Calma 6 Oeste 0 943.9 -- 93
2021-02-05 08:00:00 7 3 Noroeste 8 Noroeste 0 943.4 -- 95
2021-02-05 07:00:00 7.6 0 Calma 5 Norte 0 943.3 -- 92
2021-02-05 06:00:00 8.5 0 Calma 8 Sudoeste 0 943.7 -- 91
2021-02-05 05:00:00 9 3 Sudoeste 13 Oeste 0 943.9 -- 85
2021-02-05 04:00:00 9.7 2 Sudoeste 11 Este 0 944.5 -- 80
2021-02-05 03:00:00 10.5 6 Este 13 Sudeste 0 945.2 -- 75
2021-02-05 02:00:00 10.5 8 Este 19 Este 0 945.7 -- 77
2021-02-05 01:00:00 10.1 9 Sudeste 14 Sudeste 0 946.3 -- 83
2021-02-05 00:00:00 10.3 5 Este 11 Nordeste 0 946.5 -- 82
2021-02-04 23:00:00 10.4 6 Nordeste 9 Nordeste 0 947.1 -- 77
2021-02-04 22:00:00 10 2 Este 8 Sudeste 0 947 -- 76
2021-02-04 21:00:00 10.8 2 Sudeste 7 Sur 0 947.4 -- 72
2021-02-04 20:00:00 11.3 0 Calma 9 Sudeste 0 947.7 -- 65
2021-02-04 19:00:00 12.4 3 Sudoeste 9 Sur 0 947.7 -- 60
2021-02-04 18:00:00 13.7 6 Sudoeste 21 Sudoeste 0 947.7 -- 54
2021-02-04 17:00:00 14.1 9 Sudoeste 31 Sudoeste 0 947.4 -- 50
2021-02-04 16:00:00 14.9 20 Sur 36 Sudoeste 0 947.1 -- 49
2021-02-04 15:00:00 14.7 16 Sur 33 Sur 0 947.3 -- 54
2021-02-04 14:00:00 13.3 15 Sudoeste 30 Sur 0 948.6 -- 59
2021-02-04 13:00:00 12.3 7 Sur 17 Este 0 948.8 -- 65
2021-02-04 12:00:00 12.5 8 Sudeste 21 Este 0 949.2 -- 65
2021-02-04 11:00:00 11.4 16 Sudeste 26 Este 0 948.8 -- 69
2021-02-04 10:00:00 11.2 10 Este 19 Sudeste 0 949.3 -- 76
2021-02-04 09:00:00 9.8 10 Sudeste 18 Sudeste 0 949.7 -- 87
2021-02-04 08:00:00 9.6 4 Sudeste 10 Sudeste 0 949.7 -- 92
2021-02-04 07:00:00 9.4 5 Este 7 Sudeste 0 950.2 -- 93
2021-02-04 06:00:00 9.4 2 Sudeste 8 Sudeste 0 950.3 -- 93
2021-02-04 05:00:00 9.3 6 Este 12 Sudeste 0 950.7 -- 93
2021-02-04 04:00:00 9.9 3 Sudeste 6 Sudoeste 0 951.6 -- 89
2021-02-04 03:00:00 9.9 3 Nordeste 5 Nordeste 0 952 -- 87
2021-02-04 02:00:00 10 2 Sudeste 7 Sudeste 0 952.3 -- 85
2021-02-04 01:00:00 10.1 3 Sur 6 Sur 0 952.8 -- 85
2021-02-04 00:00:00 10.5 4 Sudeste 17 Sudoeste 0 953 -- 81
2021-02-03 23:00:00 10.4 8 Sur 17 Sur 0 953.1 -- 82
2021-02-03 22:00:00 10.2 0 Calma 16 Sudoeste 0 953.2 -- 82
2021-02-03 21:00:00 9.9 3 Oeste 14 Sudoeste 0 953.1 -- 84
2021-02-03 20:00:00 10.8 6 Oeste 14 Sudoeste 0 953 -- 76
2021-02-03 19:00:00 11.6 6 Sudoeste 21 Sur 0 952.7 -- 71
2021-02-03 18:00:00 12.9 11 Sur 19 Sudoeste 0 952.5 -- 67
2021-02-03 17:00:00 13.4 11 Sudoeste 20 Sudoeste 0 952.8 -- 63
2021-02-03 16:00:00 13.5 13 Sudoeste 20 Sudoeste 0 953 -- 62
2021-02-03 15:00:00 13.9 12 Sur 21 Sudoeste 0 953.3 -- 61
2021-02-03 14:00:00 14.6 13 Sudoeste 22 Sur 0 953.9 -- 57
2021-02-03 13:00:00 14.2 15 Sur 24 Sudoeste 0 954.8 -- 60
2021-02-03 12:00:00 13.8 16 Sudoeste 24 Sudoeste 0 955.3 -- 60
2021-02-03 11:00:00 12.4 17 Sudoeste 26 Sudoeste 0 955.6 -- 66
2021-02-03 10:00:00 11.6 14 Sudoeste 26 Sudoeste 0 955.5 -- 71
2021-02-03 09:00:00 9.9 6 Sur 13 Sudoeste 0 955.3 -- 81
2021-02-03 08:00:00 9.9 4 Sudoeste 13 Sur 0 955.1 -- 82
2021-02-03 07:00:00 10.1 7 Sur 17 Sudoeste 0 954.7 -- 83
2021-02-03 06:00:00 10.1 7 Sudoeste 12 Sudoeste 0 955 -- 84
2021-02-03 05:00:00 10.1 7 Sudoeste 12 Sur 0 955.1 -- 85
2021-02-03 04:00:00 9.9 4 Sudoeste 11 Sudoeste 0 955.3 -- 86
2021-02-03 03:00:00 10 0 Calma 10 Sudoeste 0 955.8 -- 85
2021-02-03 02:00:00 10 6 Sudoeste 13 Sudoeste 0 956.2 -- 84
2021-02-03 01:00:00 10 7 Sudoeste 11 Sudoeste 0 956.4 -- 85
2021-02-03 00:00:00 9.5 0 Calma 8 Sudoeste 0 956.3 -- 84
2021-02-02 23:00:00 9.8 0 Calma 6 Sudoeste 0 956.4 -- 83
2021-02-02 22:00:00 10.3 3 Oeste 6 Sudoeste 0 956.6 -- 79
2021-02-02 21:00:00 10.5 3 Sudoeste 6 Sudoeste 0 956.6 -- 77
2021-02-02 20:00:00 10.9 2 Sudoeste 12 Sur 0 956.6 -- 74
2021-02-02 19:00:00 10.9 8 Sudoeste 13 Sudoeste 0 956.5 -- 75
2021-02-02 18:00:00 11.2 8 Sudoeste 20 Sudoeste 0 956.4 -- 73
2021-02-02 17:00:00 11.3 13 Sudoeste 22 Sur 0 956.4 -- 72
2021-02-02 16:00:00 11.5 13 Sur 21 Sur 0 956.5 -- 73
2021-02-02 15:00:00 11.6 13 Sudoeste 21 Sudoeste 0 957.1 -- 74
2021-02-02 14:00:00 11 9 Sudoeste 22 Sudoeste 0 958.1 -- 86
2021-02-02 13:00:00 11.5 15 Sudoeste 30 Sudoeste 0 958.5 -- 76
2021-02-02 12:00:00 10.5 18 Sudoeste 31 Sudoeste 0 959.3 -- 82
2021-02-02 11:00:00 10.5 13 Sudoeste 23 Sudoeste 0 959.3 -- 86
2021-02-02 10:00:00 9.1 7 Sudoeste 15 Sudoeste 0 959.3 -- 93
2021-02-02 09:00:00 9.1 10 Sudoeste 17 Sur 0 958.9 -- 93
2021-02-02 08:00:00 9.2 3 Sur 8 Sur 0 958.7 -- 93
2021-02-02 07:00:00 9.4 0 Calma 4 Sur 0 958.7 -- 93
2021-02-02 06:00:00 9.7 2 Sudoeste 9 Sudoeste 0 958.7 -- 89
2021-02-02 05:00:00 9.7 0 Calma 13 Oeste 0 958.9 -- 88
2021-02-02 04:00:00 10 5 Oeste 14 Oeste 0 959.3 -- 86
2021-02-02 03:00:00 8.9 3 Sudoeste 7 Sudoeste 0 959.4 -- 93
2021-02-02 02:00:00 8.3 0 Calma 7 Oeste 0 959 -- 92
2021-02-02 01:00:00 8.3 3 Oeste 6 Oeste 0 959.7 -- 90
2021-02-02 00:00:00 8.5 3 Oeste 5 Oeste 0 959.4 -- 89
2021-02-01 23:00:00 8.8 0 Calma 12 Oeste 0 959.6 -- 86
2021-02-01 22:00:00 9.7 6 Sudoeste 15 Oeste 0 959.6 -- 81
2021-02-01 21:00:00 9.9 3 Oeste 10 Oeste 0 959.4 -- 83
2021-02-01 20:00:00 10.1 4 Oeste 13 Oeste 0 958.9 -- 78
2021-02-01 19:00:00 10.2 6 Oeste 21 Sudoeste 0 958.4 -- 77
2021-02-01 18:00:00 11.2 12 Sudoeste 30 Oeste 0 958.1 -- 71
2021-02-01 17:00:00 11.9 16 Sudoeste 31 Sudoeste 0 958.1 -- 70
2021-02-01 16:00:00 13.5 11 Oeste 29 Oeste 0 957.9 -- 62
2021-02-01 15:00:00 12 11 Oeste 27 Oeste 0 958 -- 69
2021-02-01 14:00:00 11.4 8 Oeste 30 Oeste 0 958.3 -- 73
2021-02-01 13:00:00 11.4 10 Oeste 27 Oeste 0 958.7 -- 74
2021-02-01 12:00:00 11.4 8 Oeste 23 Oeste 0 958.8 -- 73
2021-02-01 11:00:00 11.3 11 Sudoeste 26 Sudoeste 0 957.9 -- 74
2021-02-01 10:00:00 10.2 8 Oeste 23 Sudoeste 0 957.6 -- 77
2021-02-01 09:00:00 9.9 4 Oeste 25 Sudoeste 0 957.2 -- 82
2021-02-01 08:00:00 10.1 5 Oeste 24 Oeste 0 956.6 -- 84
2021-02-01 07:00:00 10.4 10 Oeste 26 Oeste 0 955.9 -- 83
2021-02-01 06:00:00 10.3 6 Oeste 23 Oeste 0 955.6 -- 82
2021-02-01 05:00:00 10.4 10 Oeste 22 Sudoeste 0 955.3 -- 81
2021-02-01 04:00:00 10.8 8 Oeste 27 Sudoeste 0 955.4 -- 82
2021-02-01 03:00:00 10.9 7 Oeste 31 Oeste 0 955.6 -- 81
2021-02-01 02:00:00 11.3 8 Oeste 27 Noroeste 0 955.7 -- 78
2021-02-01 01:00:00 11.5 8 Oeste 21 Oeste 0 955.5 -- 81
2021-02-01 00:00:00 12.1 7 Oeste 23 Oeste 0 955.5 -- 83
2021-01-31 23:00:00 11.8 10 Sudoeste 34 Oeste 0.1 955.1 -- 87
2021-01-31 22:00:00 12.1 14 Oeste 38 Oeste 0 955.2 -- 93
2021-01-31 21:00:00 12.1 18 Oeste 39 Sudoeste 0.1 954.5 -- 93
2021-01-31 20:00:00 12.1 16 Sudoeste 34 Sudoeste 0.2 954.4 -- 93
2021-01-31 19:00:00 12.1 11 Oeste 29 Sudoeste 0.2 954.7 -- 93
2021-01-31 18:00:00 12.2 12 Oeste 28 Oeste 0.1 954.7 -- 93
2021-01-31 17:00:00 12.9 12 Oeste 32 Oeste 0 954.8 -- 89
2021-01-31 16:00:00 12.9 8 Oeste 26 Oeste 0 955 -- 86
2021-01-31 15:00:00 11.1 10 Oeste 31 Oeste 0 955.8 -- 88
2021-01-31 14:00:00 10.9 11 Oeste 33 Sudoeste 0 956.2 -- 85
2021-01-31 13:00:00 10.5 12 Oeste 32 Noroeste 0 957 -- 87
2021-01-31 12:00:00 9.6 10 Oeste 27 Oeste 0 957.5 -- 93
2021-01-31 11:00:00 9 11 Oeste 26 Oeste 0 957.4 -- 93
2021-01-31 10:00:00 8.8 10 Oeste 26 Oeste 0.1 956.9 -- 92
2021-01-31 09:00:00 7.8 9 Oeste 20 Noroeste 0 956.8 -- 90
2021-01-31 08:00:00 7.9 9 Oeste 27 Oeste 0 956 -- 84
2021-01-31 07:00:00 7.7 10 Oeste 27 Oeste 0 956 -- 83
2021-01-31 06:00:00 7.6 10 Oeste 27 Oeste 0 955.7 -- 82
2021-01-31 05:00:00 7.5 6 Oeste 27 Oeste 0 955.6 -- 81
2021-01-31 04:00:00 7.3 10 Oeste 28 Sudoeste 0 955.5 -- 81
2021-01-31 03:00:00 7.8 7 Oeste 30 Oeste 0 955.6 -- 76
2021-01-31 02:00:00 8.1 9 Oeste 36 Oeste 0 955.4 -- 75
2021-01-31 01:00:00 8.7 14 Oeste 30 Sudoeste 0 955.4 -- 76
2021-01-31 00:00:00 8.7 9 Sudoeste 26 Oeste 0 955.3 -- 74
2021-01-30 23:00:00 8.7 10 Oeste 26 Sudoeste 0 955.6 -- 69
2021-01-30 22:00:00 9 11 Oeste 32 Oeste 0 955.4 -- 66
2021-01-30 21:00:00 9.4 13 Oeste 31 Oeste 0 954.6 -- 63
2021-01-30 20:00:00 9.9 7 Oeste 33 Sudoeste 0 954.8 -- 62
2021-01-30 19:00:00 10.5 13 Oeste 34 Oeste 0 954.2 -- 55
2021-01-30 18:00:00 11.1 14 Oeste 41 Oeste 0 953.6 -- 58
2021-01-30 17:00:00 12.9 14 Oeste 37 Oeste 0 953.5 -- 51
2021-01-30 16:00:00 11.6 14 Oeste 37 Oeste 0 954 -- 54
2021-01-30 15:00:00 11.6 12 Oeste 33 Sudoeste 0 954.6 -- 55
2021-01-30 14:00:00 12.2 15 Oeste 45 Sudoeste 0 954.7 -- 52
2021-01-30 13:00:00 11.7 10 Oeste 28 Sudoeste 0 955.8 -- 57
2021-01-30 12:00:00 12.4 12 Oeste 31 Oeste 0 956 -- 63
2021-01-30 11:00:00 11.1 13 Sudoeste 32 Oeste 0 955.6 -- 75
2021-01-30 10:00:00 10.7 6 Oeste 26 Oeste 0.2 955.5 -- 85
2021-01-30 09:00:00 10.4 10 Oeste 32 Oeste 0.5 955.3 -- 93
2021-01-30 08:00:00 10.3 8 Sudoeste 24 Sudoeste 0.4 955 -- 93
2021-01-30 07:00:00 10.2 13 Sudoeste 30 Sudoeste 0.1 955.5 -- 93
2021-01-30 06:00:00 10.9 13 Sudoeste 28 Sudoeste 0 955.7 -- 81
2021-01-30 05:00:00 11 6 Oeste 28 Sudoeste 0 956.1 -- 85
2021-01-30 04:00:00 10.6 5 Sudoeste 14 Sudoeste 0 956.9 -- 93
2021-01-30 03:00:00 10.3 3 Oeste 10 Oeste 0 957.1 -- 93
2021-01-30 02:00:00 10.1 0 Calma 13 Oeste 0 957.8 -- 93
2021-01-30 01:00:00 10.1 9 Sudoeste 21 Sudoeste 0 959.3 -- 93
2021-01-30 00:00:00 10.3 4 Sudoeste 13 Oeste 0 960 -- 91
2021-01-29 23:00:00 10.4 3 Oeste 9 Oeste 0 959.5 -- 86
2021-01-29 22:00:00 10.8 2 Oeste 5 Sudoeste 0 959.7 -- 81
2021-01-29 21:00:00 11.9 0 Calma 8 Oeste 0 959.8 -- 74
2021-01-29 20:00:00 12.4 3 Noroeste 9 Sudoeste 0 959.5 -- 70
2021-01-29 19:00:00 13.1 3 Sudoeste 10 Oeste 0 959.4 -- 57
2021-01-29 18:00:00 16.2 4 Oeste 22 Oeste 0 959.3 -- 45
2021-01-29 17:00:00 18.2 13 Sudoeste 22 Sudoeste 0 959.3 -- 38
2021-01-29 16:00:00 19.9 8 Sudoeste 19 Sudoeste 0 959.4 -- 38
2021-01-29 15:00:00 20.7 6 Oeste 18 Sudoeste 0 959.6 -- 39
2021-01-29 14:00:00 17 4 Este 8 Este 0 960.5 -- 56
2021-01-29 13:00:00 12.6 2 Este 8 Este 0 961.5 -- 91
2021-01-29 12:00:00 8.9 2 Este 7 Sur 0 962 -- 96
2021-01-29 11:00:00 6.9 0 Calma 9 Nordeste 0 962.2 -- 96
2021-01-29 10:00:00 6 4 Oeste 10 Sudoeste 0 962.3 -- 96
2021-01-29 09:00:00 5.4 2 Sur 6 Este 0.1 961.9 -- 96
2021-01-29 08:00:00 5.7 2 Sudeste 7 Sudeste 0 961.5 -- 96
2021-01-29 07:00:00 6.1 0 Calma 5 Nordeste 0 961.6 -- 96
2021-01-29 06:00:00 6.2 0 Calma 12 Oeste 0.1 961.5 -- 96
2021-01-29 05:00:00 6 0 Calma 7 Sudeste 0 961.1 -- 96
2021-01-29 04:00:00 6.4 3 Sudoeste 6 Sudoeste 0 961.8 -- 96
2021-01-29 03:00:00 6.5 0 Calma 4 Norte 0 962.2 -- 96
2021-01-29 02:00:00 7.3 0 Calma 4 Norte 0 962.6 -- 96
2021-01-29 01:00:00 7.5 2 Sudoeste 4 Sudoeste 0 962.9 -- 96
2021-01-29 00:00:00 9.7 4 Sudoeste 7 Sudoeste 0 962.6 -- 95
2021-01-28 23:00:00 10.2 0 Calma 3 Sudoeste 0 962.4 -- 93
2021-01-28 22:00:00 11.2 0 Calma 4 Nordeste 0 962.1 -- 91
2021-01-28 21:00:00 12.9 0 Calma 10 Sudoeste 0 962.3 -- 81
2021-01-28 20:00:00 14.4 4 Sudoeste 10 Sudoeste 0 962.2 -- 73
2021-01-28 19:00:00 15.6 8 Sudoeste 10 Sudoeste 0 961.8 -- 63
2021-01-28 18:00:00 18.2 0 Calma 0 Calma 0 961.6 -- 51
2021-01-28 17:00:00 20.7 0 Calma 5 Este 0 961.7 -- 46
2021-01-28 16:00:00 19.9 0 Calma 7 Este 0.1 962.1 -- 47
2021-01-28 15:00:00 19.1 3 Nordeste 8 Nordeste 0 962.4 -- 51
2021-01-28 14:00:00 16.8 3 Sudeste 10 Sudeste 0 963.2 -- 59
2021-01-28 13:00:00 13.6 4 Este 12 Nordeste 0 964.1 -- 68
2021-01-28 12:00:00 11.3 4 Este 10 Este 0 964.8 -- 96
2021-01-28 11:00:00 9.1 5 Sudeste 11 Este 0 964.8 -- 96
2021-01-28 10:00:00 8 5 Este 9 Nordeste 0 964.7 -- 96
2021-01-28 09:00:00 7.9 3 Este 6 Este 0.1 964.6 -- 96
2021-01-28 08:00:00 8.3 4 Nordeste 9 Este 0 964.1 -- 96
2021-01-28 07:00:00 8.8 4 Este 10 Sudeste 0 963.9 -- 96
2021-01-28 06:00:00 9.1 0 Calma 8 Sudoeste 0 963.9 -- 96
2021-01-28 05:00:00 9.5 2 Sudeste 6 Sudeste 0 964.1 -- 96
2021-01-28 04:00:00 9.6 0 Calma 6 Oeste 0 964.7 -- 96
2021-01-28 03:00:00 9.8 3 Sudoeste 6 Sudoeste 0 964.8 -- 96
2021-01-28 02:00:00 9.9 0 Calma 6 Norte 0 965.1 -- 96
2021-01-28 01:00:00 10.3 2 Oeste 9 Oeste 0 965.4 -- 96
2021-01-28 00:00:00 10.7 3 Sudoeste 8 Sudoeste 0 965.6 -- 96
2021-01-27 23:00:00 11.3 0 Calma 7 Oeste 0 965.5 -- 93
2021-01-27 22:00:00 11.7 2 Oeste 7 Oeste 0 965.7 -- 91
2021-01-27 21:00:00 12.3 4 Sudoeste 10 Sudoeste 0 965.7 -- 89
2021-01-27 20:00:00 12.7 0 Calma 8 Oeste 0 965.3 -- 85
2021-01-27 19:00:00 13.1 3 Sudoeste 8 Noroeste 0 964.9 -- 81
2021-01-27 18:00:00 13.9 5 Sudoeste 10 Sudoeste 0 964.8 -- 77
2021-01-27 17:00:00 14.8 5 Sudoeste 14 Sur 0 964.5 -- 74
2021-01-27 16:00:00 14.9 11 Sur 17 Sur 0 964.3 -- 75
2021-01-27 15:00:00 16.4 0 Calma 10 Oeste 0 964.4 -- 67
2021-01-27 14:00:00 15.4 3 Noroeste 9 Noroeste 0 965 -- 69
2021-01-27 13:00:00 14.1 3 Sudoeste 9 Sudoeste 0 965.5 -- 77
2021-01-27 12:00:00 13.4 5 Sudoeste 9 Sudoeste 0 965.7 -- 85
2021-01-27 11:00:00 13 3 Oeste 8 Oeste 0 965.2 -- 88
2021-01-27 10:00:00 12.9 2 Sudoeste 6 Oeste 0 964.6 -- 90
2021-01-27 09:00:00 12.7 3 Sudoeste 9 Sudoeste 0 964.2 -- 91
2021-01-27 08:00:00 12.8 0 Calma 10 Oeste 0 963.9 -- 91
2021-01-27 07:00:00 12.7 6 Sudoeste 11 Oeste 0 963.4 -- 93
2021-01-27 06:00:00 13.1 4 Sudoeste 13 Oeste 0 963.3 -- 93
2021-01-27 05:00:00 13 5 Sudoeste 11 Oeste 0 963.3 -- 93
2021-01-27 04:00:00 13 4 Sudoeste 12 Oeste 0 963.4 -- 93
2021-01-27 03:00:00 13.1 2 Oeste 12 Oeste 0 963.6 -- 93
2021-01-27 02:00:00 13.6 0 Calma 12 Oeste 0 963.8 -- 94
2021-01-27 01:00:00 13.7 3 Oeste 9 Noroeste 0 963.8 -- 95
2021-01-27 00:00:00 13.8 3 Oeste 14 Oeste 0 963.8 -- 96
2021-01-26 23:00:00 13.5 2 Oeste 10 Oeste 0 963.9 -- 95
2021-01-26 22:00:00 13.6 3 Oeste 11 Oeste 0 963.7 -- 93
2021-01-26 21:00:00 13.6 4 Oeste 12 Oeste 0 964 -- 93
2021-01-26 20:00:00 13.5 4 Oeste 13 Oeste 0 963.6 -- 93
2021-01-26 19:00:00 13.5 3 Oeste 10 Oeste 0 963.1 -- 93
2021-01-26 18:00:00 13.5 4 Oeste 13 Oeste 0 962.8 -- 93
2021-01-26 17:00:00 14.1 5 Oeste 14 Oeste 0 962.2 -- 86
2021-01-26 16:00:00 14.8 3 Oeste 15 Oeste 0 962.5 -- 81
2021-01-26 15:00:00 14.9 5 Oeste 17 Oeste 0 962 -- 77
2021-01-26 14:00:00 15.2 3 Oeste 17 Oeste 0 962.6 -- 77
2021-01-26 13:00:00 14.2 6 Sudoeste 17 Oeste 0 963.1 -- 84
2021-01-26 12:00:00 14.1 6 Sudoeste 13 Sudoeste 0.1 963.2 -- 81
2021-01-26 11:00:00 12.6 3 Oeste 12 Oeste 0 963.1 -- 93
2021-01-26 10:00:00 11.8 0 Calma 7 Sudoeste 0 962.7 -- 93
2021-01-26 09:00:00 11.3 2 Sudoeste 10 Oeste 0 961.7 -- 95
2021-01-26 08:00:00 11.2 4 Sudoeste 10 Oeste 0 961.1 -- 96
2021-01-26 07:00:00 11.1 0 Calma 4 Oeste 0 961.3 -- 95
2021-01-26 06:00:00 11.1 0 Calma 10 Oeste 0 960.5 -- 93
2021-01-26 05:00:00 11.2 3 Oeste 13 Noroeste 0 960.2 -- 93
2021-01-26 04:00:00 11.3 4 Oeste 16 Sudoeste 0 960.1 -- 92
2021-01-26 03:00:00 11.4 8 Oeste 17 Oeste 0 959.7 -- 93
2021-01-26 02:00:00 11.6 5 Oeste 19 Oeste 0 959 -- 92
2021-01-26 01:00:00 11.8 9 Sudoeste 23 Oeste 0 958.4 -- 92
2021-01-26 00:00:00 12.3 6 Oeste 22 Sudoeste 0 958.1 -- 90
2021-01-25 23:00:00 12.5 7 Oeste 19 Oeste 0 957.5 -- 88
2021-01-25 22:00:00 12.5 7 Oeste 23 Sudoeste 0 956.7 -- 89
2021-01-25 21:00:00 12.6 8 Oeste 33 Oeste 0 956.2 -- 87
2021-01-25 20:00:00 12.5 12 Oeste 33 Oeste 0 955.7 -- 87
2021-01-25 19:00:00 12.2 13 Sudoeste 31 Oeste 0 954.9 -- 91
2021-01-25 18:00:00 12.1 7 Oeste 29 Oeste 0 954.7 -- 90
2021-01-25 17:00:00 12.5 10 Oeste 32 Oeste 0 953.9 -- 85
2021-01-25 16:00:00 12.8 12 Oeste 33 Oeste 0 953.6 -- 80
2021-01-25 15:00:00 13.7 14 Oeste 30 Oeste 0 953.3 -- 75
2021-01-25 14:00:00 13.7 12 Oeste 40 Sudoeste 0.1 953.4 -- 83
2021-01-25 13:00:00 13 14 Oeste 37 Sudoeste 0.2 953.7 -- 91
2021-01-25 12:00:00 12.3 10 Oeste 30 Oeste 0.2 954.5 -- 93
2021-01-25 11:00:00 11 7 Sudoeste 21 Sudoeste 0.8 954.2 -- 95
2021-01-25 10:00:00 10 9 Sudoeste 21 Sudoeste 1 953.9 -- 95
2021-01-25 09:00:00 9.7 6 Sudoeste 21 Sudoeste 0.1 953.7 -- 96
2021-01-25 08:00:00 9.8 5 Oeste 21 Oeste 0.3 954.1 -- 96
2021-01-25 07:00:00 9.1 5 Sudoeste 17 Sudoeste 0.3 954.1 -- 96
2021-01-25 06:00:00 8.8 3 Sudoeste 16 Sudoeste 0.1 954 -- 96
2021-01-25 05:00:00 8.9 6 Sudoeste 14 Sudoeste 0.1 954.4 -- 96
2021-01-25 04:00:00 9.1 0 Calma 8 Sudoeste 0 955 -- 90
2021-01-25 03:00:00 9.3 3 Sudoeste 13 Sudoeste 0 955.4 -- 88
2021-01-25 02:00:00 9.6 6 Sudoeste 20 Sudoeste 0 955.7 -- 87
2021-01-25 01:00:00 9.5 7 Sudoeste 19 Oeste 0 955.6 -- 84
2021-01-25 00:00:00 9.5 6 Oeste 21 Sudoeste 0 956.1 -- 82